createdAt,value
2019-05-26T00:01:30.783Z,4.55
2019-05-26T00:04:02.392Z,4.87
2019-05-26T00:06:32.948Z,4.50
2019-05-26T00:09:03.634Z,4.70
2019-05-26T00:11:34.053Z,4.92
2019-05-26T00:14:05.117Z,5.33
2019-05-26T00:16:36.053Z,5.12
2019-05-26T00:19:06.677Z,5.50
2019-05-26T00:21:37.253Z,6.80
2019-05-26T00:24:07.863Z,6.62
2019-05-26T00:26:40.739Z,7.15
2019-05-26T00:29:14.033Z,7.58
2019-05-26T00:31:44.221Z,7.58
2019-05-26T00:34:15.161Z,6.87
2019-05-26T00:36:46.431Z,8.08
2019-05-26T00:39:16.651Z,7.65
2019-05-26T00:41:47.175Z,7.90
2019-05-26T00:44:17.673Z,7.87
2019-05-26T00:46:48.080Z,7.75
2019-05-26T00:49:18.353Z,8.30
2019-05-26T00:51:49.105Z,7.95
2019-05-26T00:54:19.515Z,8.13
2019-05-26T00:56:49.831Z,8.18
2019-05-26T00:59:21.038Z,8.10
2019-05-26T01:01:52.524Z,7.87
2019-05-26T01:04:26.968Z,8.43
2019-05-26T01:07:01.609Z,8.70
2019-05-26T01:09:33.137Z,8.70
2019-05-26T01:12:03.439Z,8.03
2019-05-26T01:14:34.031Z,8.33
2019-05-26T01:17:04.202Z,8.70
2019-05-26T01:19:34.581Z,8.55
2019-05-26T01:22:05.106Z,8.28
2019-05-26T01:24:35.876Z,8.10
2019-05-26T01:27:06.363Z,9.95
2019-05-26T01:29:36.995Z,8.93
2019-05-26T01:32:08.460Z,9.18
2019-05-26T01:34:39.487Z,9.65
2019-05-26T01:37:15.349Z,9.48
2019-05-26T01:39:45.422Z,9.98
2019-05-26T01:42:18.801Z,9.30
2019-05-26T01:44:48.918Z,9.83
2019-05-26T01:47:19.510Z,9.85
2019-05-26T01:49:50.093Z,10.43
2019-05-26T01:52:20.454Z,10.28
2019-05-26T01:54:51.034Z,10.32
2019-05-26T01:57:21.623Z,10.85
2019-05-26T01:59:51.907Z,10.65
2019-05-26T02:02:22.691Z,11.03
2019-05-26T02:04:53.370Z,11.12
2019-05-26T02:07:23.745Z,12.43
2019-05-26T02:09:57.283Z,11.33
2019-05-26T02:12:28.910Z,11.18
2019-05-26T02:14:59.833Z,11.43
2019-05-26T02:17:30.956Z,11.83
2019-05-26T02:20:01.705Z,12.07
2019-05-26T02:22:32.524Z,13.00
2019-05-26T02:25:03.123Z,12.73
2019-05-26T02:27:33.764Z,12.33
2019-05-26T02:30:04.626Z,13.00
2019-05-26T02:32:35.015Z,12.40
2019-05-26T02:35:06.120Z,12.53
2019-05-26T02:37:36.527Z,11.70
2019-05-26T02:40:08.174Z,12.00
2019-05-26T02:42:40.082Z,12.60
2019-05-26T02:45:14.245Z,13.25
2019-05-26T02:47:46.076Z,13.32
2019-05-26T02:50:17.292Z,12.75
2019-05-26T02:52:48.338Z,13.55
2019-05-26T02:55:19.181Z,11.63
2019-05-26T02:57:49.555Z,11.75
2019-05-26T03:00:39.171Z,12.82
2019-05-26T03:03:11.221Z,12.53
2019-05-26T03:05:44.728Z,12.95
2019-05-26T03:08:16.383Z,11.85
2019-05-26T03:10:48.817Z,11.65
2019-05-26T03:13:19.457Z,12.30
2019-05-26T03:15:50.357Z,13.58
2019-05-26T03:18:21.215Z,14.63
2019-05-26T03:20:52.345Z,13.13
2019-05-26T03:23:22.811Z,14.13
2019-05-26T03:25:58.180Z,13.62
2019-05-26T03:28:28.477Z,13.10
2019-05-26T03:30:58.879Z,13.10
2019-05-26T03:33:29.611Z,13.50
2019-05-26T03:36:00.181Z,13.43
2019-05-26T03:38:30.569Z,13.05
2019-05-26T03:41:00.934Z,13.85
2019-05-26T03:43:31.128Z,12.90
2019-05-26T03:46:19.697Z,13.53
2019-05-26T03:48:51.165Z,13.50
2019-05-26T03:51:21.900Z,13.30
2019-05-26T03:53:52.298Z,12.93
2019-05-26T03:56:22.628Z,12.18
2019-05-26T03:58:53.161Z,11.53
2019-05-26T04:01:23.807Z,10.65
2019-05-26T04:03:54.440Z,10.15
2019-05-26T04:06:25.233Z,9.28
2019-05-26T04:08:55.377Z,8.95
2019-05-26T04:11:25.930Z,8.38
2019-05-26T04:13:55.992Z,8.65
2019-05-26T04:16:26.115Z,8.30
2019-05-26T04:18:56.730Z,7.53
2019-05-26T04:21:27.522Z,7.95
2019-05-26T04:23:57.838Z,7.25
2019-05-26T04:26:28.177Z,7.40
2019-05-26T04:28:58.585Z,7.47
2019-05-26T04:31:29.152Z,7.00
2019-05-26T04:33:59.565Z,7.15
2019-05-26T04:36:29.857Z,7.62
2019-05-26T04:39:00.280Z,6.97
2019-05-26T04:41:31.018Z,7.67
2019-05-26T04:44:01.592Z,7.72
2019-05-26T04:46:32.694Z,7.00
2019-05-26T04:49:03.356Z,6.70
2019-05-26T04:51:34.091Z,7.40
2019-05-26T04:54:06.125Z,7.35
2019-05-26T04:56:37.469Z,7.35
2019-05-26T04:59:08.041Z,6.87
2019-05-26T05:01:38.705Z,7.55
2019-05-26T05:04:09.030Z,7.58
2019-05-26T05:06:39.811Z,7.33
2019-05-26T05:09:10.147Z,7.67
2019-05-26T05:11:40.875Z,7.87
2019-05-26T05:14:11.302Z,7.50
2019-05-26T05:16:41.474Z,7.37
2019-05-26T05:19:15.474Z,7.47
2019-05-26T05:21:45.858Z,8.00
2019-05-26T05:24:16.386Z,8.13
2019-05-26T05:26:46.543Z,8.78
2019-05-26T05:29:16.831Z,8.50
2019-05-26T05:31:46.910Z,9.10
2019-05-26T05:34:17.165Z,8.60
2019-05-26T05:36:48.083Z,8.73
2019-05-26T05:39:18.647Z,8.70
2019-05-26T05:41:50.748Z,8.63
2019-05-26T05:44:21.193Z,8.10
2019-05-26T05:46:51.343Z,8.33
2019-05-26T05:49:22.017Z,8.20
2019-05-26T05:51:53.365Z,7.33
2019-05-26T05:54:24.050Z,8.33
2019-05-26T05:56:55.778Z,8.73
2019-05-26T05:59:26.063Z,8.70
2019-05-26T06:01:56.687Z,8.33
2019-05-26T06:04:26.910Z,9.15
2019-05-26T06:06:57.468Z,9.38
2019-05-26T06:09:28.619Z,9.68
2019-05-26T06:11:59.061Z,9.08
2019-05-26T06:14:29.493Z,9.38
2019-05-26T06:17:00.761Z,9.38
2019-05-26T06:19:32.608Z,8.60
2019-05-26T06:22:03.649Z,8.53
2019-05-26T06:24:34.691Z,9.98
2019-05-26T06:27:05.470Z,10.80
2019-05-26T06:29:36.356Z,10.03
2019-05-26T06:32:09.985Z,10.48
2019-05-26T06:34:40.779Z,9.23
2019-05-26T06:37:11.471Z,9.43
2019-05-26T06:39:42.143Z,9.35
2019-05-26T06:42:13.270Z,8.48
2019-05-26T06:44:53.610Z,10.90
2019-05-26T06:47:16.292Z,9.70
2019-05-26T06:49:52.818Z,9.10
2019-05-26T06:52:23.612Z,8.80
2019-05-26T06:54:54.244Z,9.20
2019-05-26T06:57:25.101Z,8.73
2019-05-26T06:59:55.814Z,8.88
2019-05-26T07:02:26.624Z,11.83
2019-05-26T07:04:57.840Z,9.95
2019-05-26T07:07:28.812Z,9.93
2019-05-26T07:09:59.551Z,9.53
2019-05-26T07:12:30.492Z,8.70
2019-05-26T07:15:03.356Z,9.10
2019-05-26T07:17:34.508Z,9.00
2019-05-26T07:20:06.837Z,9.25
2019-05-26T07:22:38.274Z,8.03
2019-05-26T07:25:09.757Z,8.30
2019-05-26T07:27:40.151Z,10.48
2019-05-26T07:30:13.536Z,9.23
2019-05-26T07:32:44.638Z,8.93
2019-05-26T07:35:15.402Z,8.23
2019-05-26T07:37:46.836Z,9.25
2019-05-26T07:40:18.369Z,9.50
2019-05-26T07:42:48.634Z,8.25
2019-05-26T07:45:18.999Z,8.20
2019-05-26T07:47:49.552Z,7.87
2019-05-26T07:50:19.870Z,8.08
2019-05-26T07:52:50.008Z,11.15
2019-05-26T07:55:20.640Z,10.13
2019-05-26T07:57:51.530Z,10.43
2019-05-26T08:00:22.242Z,8.78
2019-05-26T08:02:52.655Z,8.38
2019-05-26T08:05:24.338Z,9.18
2019-05-26T08:08:09.566Z,9.08
2019-05-26T08:10:26.867Z,8.48
2019-05-26T08:12:57.277Z,7.85
2019-05-26T08:15:27.451Z,8.03
2019-05-26T08:17:57.824Z,7.97
2019-05-26T08:20:28.390Z,8.28
2019-05-26T08:22:58.443Z,8.20
2019-05-26T08:25:29.068Z,7.60
2019-05-26T08:28:00.103Z,7.83
2019-05-26T08:30:30.362Z,8.28
2019-05-26T08:33:00.554Z,7.80
2019-05-26T08:35:44.141Z,7.60
2019-05-26T08:38:21.771Z,7.12
2019-05-26T08:40:52.569Z,6.92
2019-05-26T08:43:23.246Z,6.83
2019-05-26T08:45:54.517Z,8.55
2019-05-26T08:48:30.044Z,7.03
2019-05-26T08:51:01.345Z,6.85
2019-05-26T08:53:31.995Z,7.65
2019-05-26T08:56:04.722Z,5.70
2019-05-26T08:58:34.942Z,5.20
2019-05-26T09:01:05.497Z,6.87
2019-05-26T09:03:35.873Z,6.20
2019-05-26T09:06:06.218Z,5.70
2019-05-26T09:08:36.517Z,6.65
2019-05-26T09:11:08.303Z,6.55
2019-05-26T09:13:38.821Z,5.80
2019-05-26T09:16:09.489Z,6.67
2019-05-26T09:18:39.916Z,5.50
2019-05-26T09:21:10.561Z,5.65
2019-05-26T09:23:40.950Z,4.95
2019-05-26T09:26:15.419Z,5.42
2019-05-26T09:28:46.446Z,4.58
2019-05-26T09:31:16.953Z,4.45
2019-05-26T09:33:47.700Z,4.37
2019-05-26T09:36:20.185Z,4.17
2019-05-26T09:38:50.817Z,4.28
2019-05-26T09:41:21.663Z,4.75
2019-05-26T09:43:55.629Z,5.30
2019-05-26T09:46:27.527Z,4.47
2019-05-26T09:49:00.820Z,4.97
2019-05-26T09:51:30.091Z,4.92
2019-05-26T09:54:02.216Z,4.72
2019-05-26T09:56:34.116Z,3.85
2019-05-26T09:59:04.649Z,4.00
2019-05-26T10:01:35.485Z,3.50
2019-05-26T10:04:06.118Z,3.22
2019-05-26T10:06:38.373Z,3.55
2019-05-26T10:09:09.269Z,3.70
2019-05-26T10:11:39.949Z,2.98
2019-05-26T10:14:10.658Z,4.47
2019-05-26T10:16:41.317Z,3.27
2019-05-26T10:19:12.361Z,3.47
2019-05-26T10:21:42.982Z,2.95
2019-05-26T10:24:14.178Z,3.20
2019-05-26T10:26:44.763Z,2.60
2019-05-26T10:29:15.493Z,2.72
2019-05-26T10:31:45.793Z,2.95
2019-05-26T10:34:15.923Z,2.80
2019-05-26T10:36:46.225Z,2.70
2019-05-26T10:39:17.305Z,3.00
2019-05-26T10:41:48.029Z,4.25
2019-05-26T10:44:18.374Z,3.92
2019-05-26T10:46:49.525Z,3.90
2019-05-26T10:49:20.082Z,3.98
2019-05-26T10:51:51.197Z,3.40
2019-05-26T10:54:21.485Z,4.20
2019-05-26T10:56:52.755Z,3.27
2019-05-26T10:59:23.187Z,2.85
2019-05-26T11:01:53.677Z,3.75
2019-05-26T11:04:24.953Z,3.55
2019-05-26T11:06:55.267Z,3.52
2019-05-26T11:09:27.198Z,3.10
2019-05-26T11:11:58.096Z,3.27
2019-05-26T11:14:28.776Z,3.83
2019-05-26T11:17:05.726Z,3.20
2019-05-26T11:19:36.861Z,2.70
2019-05-26T11:22:07.565Z,2.67
2019-05-26T11:24:37.935Z,2.27
2019-05-26T11:27:12.140Z,2.87
2019-05-26T11:29:40.958Z,2.50
2019-05-26T11:32:11.888Z,2.52
2019-05-26T11:34:42.886Z,2.72
2019-05-26T11:37:15.054Z,2.02
2019-05-26T11:39:45.836Z,2.12
2019-05-26T11:42:16.577Z,2.17
2019-05-26T11:44:47.089Z,2.20
2019-05-26T11:47:18.174Z,2.20
2019-05-26T11:49:48.688Z,2.35
2019-05-26T11:52:22.668Z,1.92
2019-05-26T11:54:54.966Z,3.00
2019-05-26T11:57:25.594Z,2.52
2019-05-26T11:59:57.795Z,2.10
2019-05-26T12:02:32.180Z,2.37
2019-05-26T12:05:04.366Z,2.50
2019-05-26T12:07:43.178Z,2.20
2019-05-26T12:12:46.579Z,2.33
2019-05-26T12:15:25.478Z,2.42
2019-05-26T12:17:56.553Z,2.12
2019-05-26T12:20:37.914Z,1.80
2019-05-26T12:23:14.158Z,1.87
2019-05-26T12:25:52.185Z,2.37
2019-05-26T12:28:37.051Z,2.70
2019-05-26T12:31:27.424Z,2.25
2019-05-26T12:34:06.564Z,2.10
2019-05-26T12:36:48.333Z,2.60
2019-05-26T12:39:25.081Z,2.33
2019-05-26T12:41:58.374Z,1.92
2019-05-26T12:44:49.143Z,2.10
2019-05-26T12:47:16.765Z,2.12
2019-05-26T12:49:48.410Z,2.10
2019-05-26T12:52:23.254Z,2.30
2019-05-26T12:54:54.096Z,1.90
2019-05-26T12:57:32.054Z,2.10
2019-05-26T13:00:23.704Z,1.77
2019-05-26T13:02:56.683Z,2.08
2019-05-26T13:05:35.208Z,1.87
2019-05-26T13:08:06.462Z,1.92
2019-05-26T13:10:59.310Z,1.90
2019-05-26T13:13:40.168Z,2.60
2019-05-26T13:16:12.308Z,2.17
2019-05-26T13:18:42.879Z,2.40
2019-05-26T13:21:24.113Z,2.00
2019-05-26T13:24:01.394Z,2.30
2019-05-26T13:26:54.231Z,2.70
2019-05-26T13:29:29.485Z,2.12
2019-05-26T13:32:03.633Z,2.00
2019-05-26T13:34:43.183Z,2.00
2019-05-26T13:37:19.386Z,2.10
2019-05-26T13:39:55.411Z,2.37
2019-05-26T13:42:33.515Z,1.87
2019-05-26T13:45:21.698Z,2.40
2019-05-26T13:47:47.916Z,1.77
2019-05-26T13:50:20.973Z,2.50
2019-05-26T13:52:53.205Z,1.82
2019-05-26T13:55:23.631Z,2.02
2019-05-26T13:57:53.831Z,2.00
2019-05-26T14:00:25.404Z,1.75
2019-05-26T14:02:56.102Z,2.37
2019-05-26T14:05:26.603Z,1.75
2019-05-26T14:07:57.053Z,1.70
2019-05-26T14:10:32.431Z,2.10
2019-05-26T14:13:07.525Z,1.95
2019-05-26T14:15:39.520Z,2.05
2019-05-26T14:18:10.905Z,1.80
2019-05-26T14:20:45.952Z,1.60
2019-05-26T14:23:16.181Z,1.98
2019-05-26T14:25:46.630Z,1.60
2019-05-26T14:28:17.081Z,1.98
2019-05-26T14:30:48.276Z,2.02
2019-05-26T14:33:19.417Z,1.70
2019-05-26T14:35:50.411Z,2.00
2019-05-26T14:38:21.177Z,1.95
2019-05-26T14:40:51.634Z,2.00
2019-05-26T14:43:22.051Z,1.70
2019-05-26T14:45:53.884Z,2.10
2019-05-26T14:48:25.244Z,1.47
2019-05-26T14:50:55.611Z,1.70
2019-05-26T14:53:27.324Z,1.60
2019-05-26T14:55:57.891Z,1.42
2019-05-26T14:58:28.103Z,1.45
2019-05-26T15:00:58.648Z,1.70
2019-05-26T15:03:29.007Z,1.62
2019-05-26T15:06:06.023Z,1.60
2019-05-26T15:08:31.703Z,1.70
2019-05-26T15:11:02.447Z,1.70
2019-05-26T15:13:43.327Z,1.60
2019-05-26T15:16:17.806Z,1.70
2019-05-26T15:18:47.949Z,1.10
2019-05-26T15:21:18.325Z,1.55
2019-05-26T15:23:49.666Z,1.40
2019-05-26T15:26:20.772Z,1.40
2019-05-26T15:28:50.952Z,1.40
2019-05-26T15:31:21.536Z,1.40
2019-05-26T15:33:58.703Z,1.60
2019-05-26T15:36:29.673Z,1.35
2019-05-26T15:39:00.348Z,1.70
2019-05-26T15:41:30.766Z,1.60
2019-05-26T15:44:01.412Z,1.37
2019-05-26T15:46:32.442Z,1.80
2019-05-26T15:49:02.893Z,1.40
2019-05-26T15:51:33.448Z,1.40
2019-05-26T15:54:04.174Z,1.55
2019-05-26T15:56:34.941Z,1.40
2019-05-26T15:59:05.825Z,1.80
2019-05-26T16:01:36.044Z,1.20
2019-05-26T16:04:06.561Z,1.10
2019-05-26T16:06:38.630Z,1.70
2019-05-26T16:09:09.025Z,1.50
2019-05-26T16:11:43.115Z,1.60
2019-05-26T16:14:15.244Z,1.60
2019-05-26T16:16:45.552Z,1.47
2019-05-26T16:19:16.334Z,2.05
2019-05-26T16:21:46.759Z,1.77
2019-05-26T16:24:17.898Z,1.98
2019-05-26T16:26:49.686Z,1.87
2019-05-26T16:29:19.975Z,2.00
2019-05-26T16:31:50.585Z,1.80
2019-05-26T16:34:20.975Z,1.95
2019-05-26T16:36:51.638Z,1.90
2019-05-26T16:39:36.139Z,1.77
2019-05-26T16:41:54.677Z,1.80
2019-05-26T16:44:25.751Z,1.90
2019-05-26T16:46:57.097Z,2.00
2019-05-26T16:49:27.443Z,2.05
2019-05-26T16:51:58.747Z,2.27
2019-05-26T16:54:29.596Z,2.20
2019-05-26T16:57:00.541Z,2.00
2019-05-26T16:59:31.123Z,2.00
2019-05-26T17:02:01.683Z,1.80
2019-05-26T17:04:32.372Z,2.05
2019-05-26T17:07:03.185Z,1.70
2019-05-26T17:09:34.065Z,1.90
2019-05-26T17:12:04.743Z,2.00
2019-05-26T17:14:35.456Z,1.80
2019-05-26T17:17:14.582Z,1.60
2019-05-26T17:19:38.295Z,1.90
2019-05-26T17:22:08.959Z,1.95
2019-05-26T17:24:39.428Z,1.70
2019-05-26T17:27:09.770Z,1.75
2019-05-26T17:29:40.344Z,1.92
2019-05-26T17:32:11.432Z,1.60
2019-05-26T17:34:42.430Z,2.50
2019-05-26T17:37:14.797Z,1.75
2019-05-26T17:39:46.228Z,1.98
2019-05-26T17:42:17.570Z,1.60
2019-05-26T17:44:51.281Z,1.70
2019-05-26T17:47:30.301Z,1.50
2019-05-26T17:49:54.479Z,1.90
2019-05-26T17:52:30.614Z,1.75
2019-05-26T17:55:05.645Z,1.70
2019-05-26T17:57:37.544Z,1.20
2019-05-26T18:02:46.326Z,1.45
2019-05-26T18:05:20.042Z,1.80
2019-05-26T18:07:51.118Z,1.77
2019-05-26T18:10:23.704Z,2.00
2019-05-26T18:12:54.504Z,1.80
2019-05-26T18:15:25.966Z,1.90
2019-05-26T18:17:56.967Z,1.80
2019-05-26T18:20:28.942Z,1.60
2019-05-26T18:22:59.834Z,1.82
2019-05-26T18:25:32.797Z,1.90
2019-05-26T18:28:03.365Z,1.60
2019-05-26T18:30:36.883Z,1.98
2019-05-26T18:33:07.588Z,1.60
2019-05-26T18:35:38.887Z,1.77
2019-05-26T18:38:09.380Z,2.50
2019-05-26T18:40:40.421Z,1.87
2019-05-26T18:43:10.817Z,2.05
2019-05-26T18:45:41.502Z,1.62
2019-05-26T18:48:14.980Z,1.95
2019-05-26T18:50:45.351Z,2.30
2019-05-26T18:53:15.669Z,1.67
2019-05-26T18:55:46.400Z,1.92
2019-05-26T18:58:16.890Z,1.70
2019-05-26T19:00:47.443Z,2.00
2019-05-26T19:03:18.532Z,2.10
2019-05-26T19:05:48.808Z,1.95
2019-05-26T19:08:19.083Z,2.10
2019-05-26T19:10:51.805Z,1.67
2019-05-26T19:13:23.609Z,1.70
2019-05-26T19:15:57.038Z,1.85
2019-05-26T19:18:39.129Z,2.02
2019-05-26T19:21:13.171Z,1.92
2019-05-26T19:23:44.080Z,1.57
2019-05-26T19:26:15.893Z,1.72
2019-05-26T19:28:50.513Z,1.80
2019-05-26T19:31:22.413Z,1.80
2019-05-26T19:33:57.209Z,2.08
2019-05-26T19:36:32.655Z,1.98
2019-05-26T19:39:03.485Z,2.17
2019-05-26T19:41:39.269Z,2.20
2019-05-26T19:44:08.286Z,2.10
2019-05-26T19:46:43.014Z,2.90
2019-05-26T19:49:15.085Z,1.98
2019-05-26T19:51:46.676Z,1.77
2019-05-26T19:54:18.473Z,2.30
2019-05-26T19:56:51.294Z,1.92
2019-05-26T19:59:26.406Z,2.20
2019-05-26T20:01:58.586Z,1.95
2019-05-26T20:04:33.533Z,2.10
2019-05-26T20:07:06.362Z,2.00
2019-05-26T20:09:37.574Z,1.92
2019-05-26T20:12:12.471Z,1.90
2019-05-26T20:14:44.274Z,2.12
2019-05-26T20:17:17.735Z,2.30
2019-05-26T20:19:48.562Z,1.90
2019-05-26T20:22:24.409Z,4.72
2019-05-26T20:24:56.074Z,2.72
2019-05-26T20:27:27.202Z,2.33
2019-05-26T20:30:02.113Z,2.72
2019-05-26T20:32:35.462Z,2.37
2019-05-26T20:35:07.978Z,2.27
2019-05-26T20:37:39.402Z,3.33
2019-05-26T20:40:10.927Z,3.45
2019-05-26T20:42:41.377Z,2.70
2019-05-26T20:45:15.914Z,2.87
2019-05-26T20:47:46.618Z,3.12
2019-05-26T20:50:28.762Z,3.45
2019-05-26T20:52:51.757Z,2.75
2019-05-26T20:55:22.435Z,5.87
2019-05-26T20:57:52.830Z,3.10
2019-05-26T21:00:23.357Z,2.72
2019-05-26T21:02:53.959Z,2.40
2019-05-26T21:05:24.456Z,2.92
2019-05-26T21:07:55.056Z,2.70
2019-05-26T21:10:25.277Z,2.62
2019-05-26T21:12:55.783Z,2.50
2019-05-26T21:15:25.994Z,2.25
2019-05-26T21:17:56.704Z,2.83
2019-05-26T21:20:28.140Z,3.00
2019-05-26T21:22:59.903Z,2.83
2019-05-26T21:25:30.469Z,3.27
2019-05-26T21:28:01.732Z,3.00
2019-05-26T21:30:31.868Z,2.45
2019-05-26T21:33:03.242Z,2.70
2019-05-26T21:35:34.097Z,2.90
2019-05-26T21:38:04.726Z,2.98
2019-05-26T21:40:35.298Z,3.00
2019-05-26T21:43:05.491Z,2.92
2019-05-26T21:45:36.252Z,3.10
2019-05-26T21:48:06.908Z,3.25
2019-05-26T21:50:37.046Z,3.37
2019-05-26T21:53:07.894Z,3.30
2019-05-26T21:55:38.391Z,3.20
2019-05-26T21:58:09.039Z,3.60
2019-05-26T22:00:43.868Z,3.62
2019-05-26T22:03:14.602Z,3.35
2019-05-26T22:05:45.225Z,3.33
2019-05-26T22:08:16.351Z,6.22
2019-05-26T22:10:46.652Z,4.67
2019-05-26T22:13:19.531Z,3.35
2019-05-26T22:15:50.927Z,3.65
2019-05-26T22:18:22.292Z,3.10
2019-05-26T22:20:53.469Z,3.67
2019-05-26T22:23:23.833Z,3.12
2019-05-26T22:25:54.106Z,3.25
2019-05-26T22:28:24.341Z,3.22
2019-05-26T22:30:55.237Z,3.35
2019-05-26T22:33:26.663Z,3.35
2019-05-26T22:35:57.361Z,3.33
2019-05-26T22:38:28.090Z,3.22
2019-05-26T22:40:58.598Z,3.37
2019-05-26T22:43:29.008Z,3.87
2019-05-26T22:46:00.612Z,3.40
2019-05-26T22:48:31.077Z,3.12
2019-05-26T22:51:01.958Z,3.52
2019-05-26T22:53:32.295Z,3.40
2019-05-26T22:56:02.879Z,3.85
2019-05-26T22:58:33.525Z,3.80
2019-05-26T23:01:03.725Z,3.37
2019-05-26T23:03:34.638Z,3.62
2019-05-26T23:06:07.837Z,3.50
2019-05-26T23:08:38.767Z,3.30
2019-05-26T23:11:09.607Z,3.55
2019-05-26T23:13:39.735Z,3.58
2019-05-26T23:16:10.281Z,3.62
2019-05-26T23:18:40.477Z,4.08
2019-05-26T23:21:10.903Z,3.70
2019-05-26T23:23:41.574Z,3.35
2019-05-26T23:26:12.538Z,3.92
2019-05-26T23:28:42.789Z,3.70
2019-05-26T23:31:13.024Z,3.87
2019-05-26T23:33:43.466Z,3.77
2019-05-26T23:38:51.463Z,4.30
2019-05-26T23:41:22.276Z,3.55
2019-05-26T23:43:55.885Z,3.70
2019-05-26T23:46:26.538Z,3.98
2019-05-26T23:48:56.625Z,3.83
2019-05-26T23:51:26.843Z,3.62
2019-05-26T23:53:57.504Z,3.52
2019-05-26T23:56:27.703Z,3.95
2019-05-26T23:58:59.181Z,3.80
